Terminal Aerodrome Forecast
Issued by NWS Melbourne, FL

Home | Current Version | Previous Version | Text Only | Print | Product List | Glossary On
Versions: 1 2 3 4 5 6 7 8 9 10 11 12 13 14 15 16 17 18 19
383
FTUS42 KMLB 221753
TAFMLB
TAF
KMLB 221753Z 2218/2318 04011KT P6SM SCT025
     FM230600 06006KT P6SM VCSH SCT020 BKN035
     FM231400 12006KT P6SM VCSH SCT025 OVC040=

USA.gov is the U.S. government's official web portal to all federal, state and local government web resources and services.